createdAt,value
2023-01-28T00:02:32.137Z,82.22
2023-01-28T00:05:34.609Z,82.38
2023-01-28T00:08:37.708Z,82.70
2023-01-28T00:11:40.231Z,83.25
2023-01-28T00:14:43.592Z,83.35
2023-01-28T00:17:46.439Z,83.55
2023-01-28T00:21:00.359Z,83.61
2023-01-28T00:24:03.346Z,83.69
2023-01-28T00:27:06.609Z,83.79
2023-01-28T00:30:09.980Z,83.49
2023-01-28T00:33:13.345Z,83.75
2023-01-28T00:36:17.189Z,83.39
2023-01-28T00:39:20.147Z,83.26
2023-01-28T00:42:23.402Z,83.04
2023-01-28T00:45:26.595Z,83.24
2023-01-28T00:48:31.247Z,83.22
2023-01-28T00:51:34.237Z,83.32
2023-01-28T00:54:37.699Z,83.06
2023-01-28T00:57:40.670Z,83.46
2023-01-28T01:00:44.150Z,83.64
2023-01-28T01:03:47.676Z,83.90
2023-01-28T01:06:50.171Z,83.88
2023-01-28T01:09:53.141Z,83.94
2023-01-28T01:12:58.108Z,83.99
2023-01-28T01:16:08.957Z,83.97
2023-01-28T01:19:11.726Z,83.96
2023-01-28T01:22:14.667Z,83.85
2023-01-28T01:25:18.402Z,84.08
2023-01-28T01:28:22.760Z,84.00
2023-01-28T01:31:25.485Z,84.29
2023-01-28T01:34:28.425Z,84.52
2023-01-28T01:37:30.909Z,84.42
2023-01-28T01:40:34.218Z,84.52
2023-01-28T01:43:52.717Z,84.21
2023-01-28T01:46:55.772Z,84.39
2023-01-28T01:50:02.576Z,84.62
2023-01-28T01:53:19.127Z,84.37
2023-01-28T01:56:28.261Z,84.29
2023-01-28T01:59:34.910Z,83.76
2023-01-28T02:02:40.744Z,83.99
2023-01-28T02:05:43.741Z,84.38
2023-01-28T02:08:46.517Z,84.09
2023-01-28T02:11:50.381Z,83.66
2023-01-28T02:15:06.618Z,83.80
2023-01-28T02:18:10.958Z,83.59
2023-01-28T02:21:38.149Z,83.61
2023-01-28T02:24:55.853Z,83.63
2023-01-28T02:28:27.284Z,83.53
2023-01-28T02:31:36.834Z,83.26
2023-01-28T02:34:51.216Z,83.43
2023-01-28T02:38:00.963Z,83.93
2023-01-28T02:41:21.611Z,83.56
2023-01-28T02:44:25.073Z,83.62
2023-01-28T02:47:47.251Z,83.47
2023-01-28T02:51:10.437Z,83.60
2023-01-28T02:54:20.117Z,83.83
2023-01-28T02:57:28.856Z,83.62
2023-01-28T03:01:10.441Z,83.89
2023-01-28T03:04:44.154Z,83.74
2023-01-28T03:07:46.975Z,84.13
2023-01-28T03:11:09.756Z,83.65
2023-01-28T03:14:31.469Z,83.72
2023-01-28T03:18:04.589Z,83.74
2023-01-28T03:21:31.880Z,83.44
2023-01-28T03:25:07.692Z,83.89
2023-01-28T03:28:34.321Z,84.43
2023-01-28T03:31:57.890Z,84.49
2023-01-28T03:35:19.770Z,84.30
2023-01-28T03:38:23.378Z,84.82
2023-01-28T03:41:27.700Z,84.90
2023-01-28T03:44:52.005Z,84.96
2023-01-28T03:47:55.330Z,84.78
2023-01-28T03:51:02.091Z,85.23
2023-01-28T03:54:06.077Z,85.16
2023-01-28T03:57:08.922Z,85.25
2023-01-28T04:00:12.069Z,85.36
2023-01-28T04:03:20.467Z,84.96
2023-01-28T04:06:35.069Z,84.88
2023-01-28T04:09:55.969Z,85.36
2023-01-28T04:13:03.878Z,85.63
2023-01-28T04:16:07.542Z,85.56
2023-01-28T04:19:16.075Z,85.24
2023-01-28T04:22:20.949Z,85.06
2023-01-28T04:25:23.662Z,85.16
2023-01-28T04:28:26.531Z,84.99
2023-01-28T04:31:29.359Z,84.87
2023-01-28T04:34:52.262Z,85.09
2023-01-28T04:38:12.045Z,84.70
2023-01-28T04:41:37.569Z,85.12
2023-01-28T04:44:51.770Z,84.69
2023-01-28T04:48:09.878Z,84.63
2023-01-28T04:51:38.299Z,84.42
2023-01-28T04:55:04.187Z,84.36
2023-01-28T04:58:06.794Z,84.48
2023-01-28T05:01:11.082Z,84.44
2023-01-28T05:04:13.951Z,84.20
2023-01-28T05:07:17.051Z,83.74
2023-01-28T05:10:20.869Z,84.38
2023-01-28T05:13:23.833Z,83.90
2023-01-28T05:16:27.115Z,83.64
2023-01-28T05:19:30.095Z,83.07
2023-01-28T05:22:33.361Z,83.27
2023-01-28T05:25:59.376Z,82.95
2023-01-28T05:29:02.221Z,83.05
2023-01-28T05:32:05.748Z,82.76
2023-01-28T05:35:08.895Z,81.97
2023-01-28T05:38:14.243Z,81.93
2023-01-28T05:41:18.188Z,81.24
2023-01-28T05:44:23.755Z,80.85
2023-01-28T05:47:48.734Z,80.77
2023-01-28T05:51:02.092Z,80.62
2023-01-28T05:54:10.135Z,80.30
2023-01-28T05:57:13.434Z,80.00
2023-01-28T06:00:17.103Z,79.79
2023-01-28T06:03:21.697Z,79.64
2023-01-28T06:06:24.611Z,79.52
2023-01-28T06:09:28.057Z,80.14
2023-01-28T06:12:30.943Z,79.19
2023-01-28T06:15:56.752Z,79.30
2023-01-28T06:19:18.504Z,79.73
2023-01-28T06:22:21.472Z,79.47
2023-01-28T06:25:24.189Z,79.21
2023-01-28T06:28:27.413Z,79.06
2023-01-28T06:31:30.164Z,78.85
2023-01-28T06:34:33.387Z,78.71
2023-01-28T06:37:36.177Z,78.49
2023-01-28T06:40:39.555Z,78.65
2023-01-28T06:43:42.516Z,79.21
2023-01-28T06:46:45.427Z,78.53
2023-01-28T06:49:48.222Z,78.26
2023-01-28T06:52:51.193Z,78.02
2023-01-28T06:55:53.626Z,77.75
2023-01-28T06:58:56.538Z,77.58
2023-01-28T07:01:59.014Z,77.35
2023-01-28T07:05:02.436Z,77.59
2023-01-28T07:08:05.355Z,77.66
2023-01-28T07:11:08.728Z,76.90
2023-01-28T07:14:11.775Z,76.84
2023-01-28T07:17:14.911Z,76.86
2023-01-28T07:20:18.823Z,76.52
2023-01-28T07:23:22.763Z,76.56
2023-01-28T07:26:25.438Z,76.65
2023-01-28T07:29:28.628Z,76.82
2023-01-28T07:32:31.233Z,76.14
2023-01-28T07:35:34.332Z,76.10
2023-01-28T07:38:37.068Z,76.17
2023-01-28T07:41:39.942Z,76.12
2023-01-28T07:44:43.169Z,75.52
2023-01-28T07:47:46.677Z,75.56
2023-01-28T07:50:51.883Z,75.63
2023-01-28T07:53:54.982Z,75.37
2023-01-28T07:56:57.422Z,75.50
2023-01-28T08:00:00.351Z,75.08
2023-01-28T08:03:08.259Z,75.22
2023-01-28T08:06:11.922Z,74.78
2023-01-28T08:09:14.717Z,74.92
2023-01-28T08:12:18.231Z,74.68
2023-01-28T08:15:21.747Z,74.91
2023-01-28T08:18:25.077Z,74.55
2023-01-28T08:21:28.255Z,74.76
2023-01-28T08:24:31.426Z,74.16
2023-01-28T08:27:34.269Z,74.21
2023-01-28T08:30:40.088Z,74.46
2023-01-28T08:33:42.836Z,74.03
2023-01-28T08:36:45.789Z,73.68
2023-01-28T08:39:48.627Z,73.63
2023-01-28T08:42:53.206Z,73.88
2023-01-28T08:45:55.868Z,73.73
2023-01-28T08:48:58.796Z,72.87
2023-01-28T08:52:01.634Z,72.88
2023-01-28T08:55:04.497Z,73.29
2023-01-28T08:58:10.310Z,73.65
2023-01-28T09:01:13.152Z,71.99
2023-01-28T09:04:15.969Z,71.34
2023-01-28T09:07:18.773Z,71.61
2023-01-28T09:10:22.030Z,71.98
2023-01-28T09:13:25.342Z,71.70
2023-01-28T09:16:28.291Z,71.92
2023-01-28T09:19:31.194Z,72.50
2023-01-28T09:22:34.345Z,72.77
2023-01-28T09:25:37.430Z,72.60
2023-01-28T09:28:40.248Z,73.12
2023-01-28T09:31:43.632Z,73.53
2023-01-28T09:34:46.114Z,72.97
2023-01-28T09:37:49.301Z,73.37
2023-01-28T09:40:51.949Z,74.02
2023-01-28T09:44:23.641Z,73.86
2023-01-28T09:47:46.258Z,73.19
2023-01-28T09:50:53.451Z,73.13
2023-01-28T09:53:59.407Z,72.80
2023-01-28T09:57:27.104Z,72.69
2023-01-28T10:00:45.050Z,72.18
2023-01-28T10:04:14.514Z,72.74
2023-01-28T10:07:43.848Z,71.99
2023-01-28T10:11:05.433Z,72.33
2023-01-28T10:14:26.234Z,72.74
2023-01-28T10:17:37.514Z,72.49
2023-01-28T10:20:55.236Z,72.49
2023-01-28T10:24:06.583Z,71.61
2023-01-28T10:27:15.256Z,71.19
2023-01-28T10:30:25.780Z,71.54
2023-01-28T10:33:28.208Z,71.67
2023-01-28T10:36:31.263Z,71.90
2023-01-28T10:39:34.149Z,71.66
2023-01-28T10:42:39.366Z,71.86
2023-01-28T10:45:58.810Z,71.52
2023-01-28T10:49:19.051Z,72.55
2023-01-28T10:52:21.902Z,72.26
2023-01-28T10:55:44.649Z,72.71
2023-01-28T10:59:00.725Z,71.35
2023-01-28T11:02:20.196Z,71.64
2023-01-28T11:05:30.960Z,71.92
2023-01-28T11:08:44.432Z,71.81
2023-01-28T11:11:46.867Z,72.19
2023-01-28T11:15:05.620Z,72.01
2023-01-28T11:18:17.390Z,71.68
2023-01-28T11:21:23.068Z,71.15
2023-01-28T11:24:32.151Z,71.47
2023-01-28T11:27:34.821Z,71.41
2023-01-28T11:30:41.624Z,71.70
2023-01-28T11:34:01.672Z,71.29
2023-01-28T11:37:13.536Z,70.63
2023-01-28T11:40:21.567Z,70.61
2023-01-28T11:43:26.915Z,70.93
2023-01-28T11:46:47.236Z,70.46
2023-01-28T11:50:10.836Z,71.38
2023-01-28T11:53:47.423Z,71.11
2023-01-28T11:57:23.647Z,71.34
2023-01-28T12:00:26.495Z,70.78
2023-01-28T12:03:46.905Z,71.17
2023-01-28T12:07:20.830Z,70.40
2023-01-28T12:10:23.524Z,70.72
2023-01-28T12:13:29.345Z,70.06
2023-01-28T12:16:31.794Z,70.79
2023-01-28T12:19:40.178Z,69.87
2023-01-28T12:23:09.833Z,69.62
2023-01-28T12:26:54.926Z,69.71
2023-01-28T12:30:23.490Z,70.58
2023-01-28T12:33:45.398Z,70.34
2023-01-28T12:37:04.405Z,70.04
2023-01-28T12:40:34.554Z,70.41
2023-01-28T12:43:44.213Z,70.16
2023-01-28T12:47:00.832Z,69.61
2023-01-28T12:50:20.170Z,69.23
2023-01-28T12:53:34.139Z,70.15
2023-01-28T12:56:49.329Z,70.27
2023-01-28T12:59:56.788Z,69.96
2023-01-28T13:03:09.623Z,69.77
2023-01-28T13:06:20.088Z,70.18
2023-01-28T13:09:25.504Z,69.37
2023-01-28T13:12:28.720Z,69.63
2023-01-28T13:15:32.324Z,70.19
2023-01-28T13:18:41.572Z,70.14
2023-01-28T13:21:49.326Z,69.86
2023-01-28T13:24:52.741Z,70.47
2023-01-28T13:28:06.485Z,69.35
2023-01-28T13:31:17.798Z,69.82
2023-01-28T13:34:33.690Z,70.05
2023-01-28T13:37:44.706Z,69.58
2023-01-28T13:40:57.151Z,69.81
2023-01-28T13:44:01.371Z,70.23
2023-01-28T13:47:06.625Z,70.22
2023-01-28T13:50:39.781Z,70.02
2023-01-28T13:53:48.945Z,70.24
2023-01-28T13:57:00.920Z,69.66
2023-01-28T14:00:03.748Z,69.60
2023-01-28T14:03:28.832Z,69.36
2023-01-28T14:06:56.026Z,69.94
2023-01-28T14:09:58.566Z,69.43
2023-01-28T14:13:23.121Z,69.65
2023-01-28T14:16:42.649Z,69.67
2023-01-28T14:19:46.228Z,69.81
2023-01-28T14:22:50.012Z,69.47
2023-01-28T14:26:13.672Z,69.90
2023-01-28T14:29:28.448Z,70.19
2023-01-28T14:32:33.379Z,69.97
2023-01-28T14:35:40.225Z,70.15
2023-01-28T14:38:45.243Z,70.55
2023-01-28T14:41:51.054Z,70.98
2023-01-28T14:45:11.559Z,70.99
2023-01-28T14:48:26.348Z,70.50
2023-01-28T14:51:39.415Z,71.45
2023-01-28T14:55:01.037Z,70.50
2023-01-28T14:58:16.124Z,70.98
2023-01-28T15:01:30.850Z,71.17
2023-01-28T15:04:34.757Z,70.95
2023-01-28T15:07:37.523Z,70.70
2023-01-28T15:10:41.019Z,70.68
2023-01-28T15:13:47.142Z,70.79
2023-01-28T15:16:50.695Z,71.50
2023-01-28T15:19:58.053Z,70.69
2023-01-28T15:23:03.438Z,70.67
2023-01-28T15:26:17.271Z,71.14
2023-01-28T15:29:32.029Z,71.09
2023-01-28T15:32:34.940Z,71.98
2023-01-28T15:35:37.574Z,71.96
2023-01-28T15:38:40.493Z,71.78
2023-01-28T15:41:47.611Z,71.74
2023-01-28T15:44:51.468Z,71.14
2023-01-28T15:48:05.236Z,70.65
2023-01-28T15:51:18.685Z,71.25
2023-01-28T15:54:21.718Z,70.50
2023-01-28T15:57:35.158Z,70.30
2023-01-28T16:00:38.722Z,70.67
2023-01-28T16:03:43.932Z,70.34
2023-01-28T16:06:46.969Z,70.48
2023-01-28T16:09:55.565Z,70.13
2023-01-28T16:13:19.753Z,70.56
2023-01-28T16:16:35.328Z,70.68
2023-01-28T16:19:42.377Z,71.04
2023-01-28T16:22:45.709Z,70.89
2023-01-28T16:25:59.589Z,70.66
2023-01-28T16:29:17.118Z,71.18
2023-01-28T16:32:49.580Z,71.42
2023-01-28T16:36:06.553Z,71.36
2023-01-28T16:39:11.225Z,71.24
2023-01-28T16:42:14.192Z,71.62
2023-01-28T16:45:34.844Z,71.35
2023-01-28T16:48:37.874Z,71.58
2023-01-28T16:51:43.780Z,71.63
2023-01-28T16:54:47.420Z,71.89
2023-01-28T16:57:55.868Z,71.69
2023-01-28T17:00:59.770Z,72.49
2023-01-28T17:04:11.745Z,72.43
2023-01-28T17:07:15.329Z,72.47
2023-01-28T17:10:20.600Z,72.37
2023-01-28T17:13:23.749Z,72.26
2023-01-28T17:16:26.628Z,72.49
2023-01-28T17:19:29.623Z,72.28
2023-01-28T17:22:32.345Z,72.42
2023-01-28T17:25:41.680Z,72.38
2023-01-28T17:28:44.698Z,72.60
2023-01-28T17:31:47.925Z,72.78
2023-01-28T17:34:50.684Z,72.62
2023-01-28T17:37:54.883Z,72.64
2023-01-28T17:41:05.607Z,72.40
2023-01-28T17:44:12.275Z,72.43
2023-01-28T17:47:15.281Z,72.46
2023-01-28T17:50:18.573Z,72.53
2023-01-28T17:53:21.566Z,72.68
2023-01-28T17:56:27.017Z,73.10
2023-01-28T17:59:29.812Z,72.93
2023-01-28T18:02:33.172Z,72.91
2023-01-28T18:05:35.862Z,73.02
2023-01-28T18:08:38.960Z,73.59
2023-01-28T18:11:41.776Z,73.70
2023-01-28T18:14:44.697Z,72.84
2023-01-28T18:17:47.721Z,73.14
2023-01-28T18:21:05.437Z,73.25
2023-01-28T18:24:08.485Z,73.27
2023-01-28T18:27:11.602Z,73.08
2023-01-28T18:30:16.416Z,73.11
2023-01-28T18:33:20.700Z,72.75
2023-01-28T18:36:23.568Z,72.52
2023-01-28T18:39:30.480Z,73.07
2023-01-28T18:42:33.274Z,73.14
2023-01-28T18:45:40.619Z,73.10
2023-01-28T18:48:43.601Z,72.87
2023-01-28T18:51:46.987Z,72.73
2023-01-28T18:54:49.777Z,73.17
2023-01-28T18:57:53.007Z,72.57
2023-01-28T19:00:56.544Z,72.95
2023-01-28T19:04:00.341Z,72.98
2023-01-28T19:07:02.709Z,73.49
2023-01-28T19:10:06.258Z,73.24
2023-01-28T19:13:09.742Z,73.15
2023-01-28T19:16:12.578Z,72.56
2023-01-28T19:19:15.559Z,72.74
2023-01-28T19:22:18.580Z,73.20
2023-01-28T19:25:21.439Z,73.40
2023-01-28T19:28:25.109Z,73.55
2023-01-28T19:31:28.660Z,74.25
2023-01-28T19:34:32.212Z,73.34
2023-01-28T19:37:34.784Z,73.38
2023-01-28T19:40:40.561Z,73.30
2023-01-28T19:43:43.956Z,73.29
2023-01-28T19:46:46.574Z,73.25
2023-01-28T19:49:49.320Z,73.61
2023-01-28T19:52:53.357Z,73.21
2023-01-28T19:55:56.168Z,73.58
2023-01-28T19:58:59.623Z,73.14
2023-01-28T20:02:02.343Z,72.81
2023-01-28T20:05:05.757Z,73.04
2023-01-28T20:08:10.689Z,72.85
2023-01-28T20:11:16.360Z,73.40
2023-01-28T20:14:20.821Z,73.60
2023-01-28T20:17:23.868Z,73.62
2023-01-28T20:20:27.163Z,73.75
2023-01-28T20:23:30.835Z,73.68
2023-01-28T20:26:37.917Z,74.17
2023-01-28T20:29:41.530Z,74.81
2023-01-28T20:32:44.445Z,74.78
2023-01-28T20:35:48.299Z,74.82
2023-01-28T20:38:51.055Z,74.62
2023-01-28T20:41:54.523Z,74.73
2023-01-28T20:44:57.095Z,74.96
2023-01-28T20:48:00.034Z,74.73
2023-01-28T20:51:07.441Z,74.72
2023-01-28T20:54:10.525Z,74.82
2023-01-28T20:57:13.492Z,74.67
2023-01-28T21:00:17.684Z,74.72
2023-01-28T21:03:21.332Z,75.23
2023-01-28T21:06:25.373Z,75.43
2023-01-28T21:09:28.052Z,75.41
2023-01-28T21:12:31.608Z,75.66
2023-01-28T21:15:34.477Z,75.61
2023-01-28T21:18:37.416Z,75.94
2023-01-28T21:21:42.720Z,76.30
2023-01-28T21:24:47.190Z,76.54
2023-01-28T21:27:50.649Z,76.32
2023-01-28T21:30:54.663Z,76.62
2023-01-28T21:33:59.163Z,76.71
2023-01-28T21:37:02.056Z,77.05
2023-01-28T21:40:06.790Z,76.73
2023-01-28T21:43:12.505Z,76.46
2023-01-28T21:46:16.296Z,76.54
2023-01-28T21:49:19.033Z,76.62
2023-01-28T21:52:22.163Z,76.55
2023-01-28T21:55:24.936Z,76.83
2023-01-28T21:58:46.237Z,76.59
2023-01-28T22:01:49.530Z,76.21
2023-01-28T22:04:51.952Z,75.58
2023-01-28T22:07:59.250Z,75.34
2023-01-28T22:11:03.460Z,74.70
2023-01-28T22:14:07.186Z,74.08
2023-01-28T22:17:11.916Z,73.98
2023-01-28T22:20:15.104Z,73.51
2023-01-28T22:23:18.826Z,73.57
2023-01-28T22:26:21.666Z,73.33
2023-01-28T22:29:25.221Z,73.34
2023-01-28T22:32:28.488Z,73.25
2023-01-28T22:35:30.903Z,73.28
2023-01-28T22:38:33.869Z,72.98
2023-01-28T22:41:36.470Z,72.83
2023-01-28T22:44:39.850Z,72.68
2023-01-28T22:47:46.098Z,73.15
2023-01-28T22:50:49.012Z,73.02
2023-01-28T22:53:52.470Z,73.47
2023-01-28T22:56:55.423Z,73.53
2023-01-28T23:00:00.420Z,73.81
2023-01-28T23:03:03.979Z,74.53
2023-01-28T23:06:06.482Z,74.56
2023-01-28T23:09:09.549Z,75.16
2023-01-28T23:12:12.093Z,75.39
2023-01-28T23:15:34.020Z,75.84
2023-01-28T23:18:56.152Z,76.45
2023-01-28T23:22:21.833Z,76.63
2023-01-28T23:25:24.642Z,76.76
2023-01-28T23:28:27.568Z,76.90
2023-01-28T23:31:30.437Z,76.67
2023-01-28T23:34:41.536Z,76.85
2023-01-28T23:37:44.057Z,77.22
2023-01-28T23:40:47.257Z,77.41
2023-01-28T23:43:49.906Z,77.47
2023-01-28T23:46:54.850Z,77.52
2023-01-28T23:49:57.693Z,77.84
2023-01-28T23:53:00.825Z,78.17
2023-01-28T23:56:06.972Z,78.12
2023-01-28T23:59:10.051Z,78.54
